PAL224 YPPH-RPLL
Flight info
| Callsign | PAL224 |
|---|---|
| Flight time | N/A |
| Altitude | 33000 |
| Route | AVNEX Y15 ESDEG/N0474F320 Q587 IGLUT/N0473F340 Q587 METUM R592 BLI M522 ELANG DCT BU/N0471F350 DCT VJN M646 BUCAL BUCAL7R |
| Aircraft | A21N/M-SDE2E3FGHIRWXY/LB1 |
Departure
| Time | 2026-04-27 06:58 |
|---|---|
| Airport | Perth International Airport (YPPH) |
Arrival
| Time | N/A |
|---|---|
| Airport | Ninoy Aquino International Airport (RPLL) |
| Time | Latitude | Longitude | Altitude | Speed | Heading |
|---|---|---|---|---|---|
| 2026-04-27 06:07 | -31.94033 | 115.97307 | 73 ft | 0 kts | 152° |
| 2026-04-27 06:37 | -31.94033 | 115.97306 | 73 ft | 1 kts | 152° |
| 2026-04-27 06:38 | -31.94011 | 115.97293 | 73 ft | 4 kts | 154° |
| 2026-04-27 06:38 | -31.93986 | 115.97280 | 73 ft | 4 kts | 159° |
| 2026-04-27 06:38 | -31.93961 | 115.97272 | 73 ft | 4 kts | 174° |
| 2026-04-27 06:38 | -31.93938 | 115.97275 | 70 ft | 4 kts | 225° |
| 2026-04-27 06:39 | -31.93926 | 115.97298 | 73 ft | 4 kts | 243° |
| 2026-04-27 06:39 | -31.93916 | 115.97327 | 68 ft | 3 kts | 256° |
| 2026-04-27 06:39 | -31.93915 | 115.97331 | 73 ft | 0 kts | 257° |
| 2026-04-27 06:41 | -31.93915 | 115.97330 | 73 ft | 0 kts | 257° |
| 2026-04-27 06:44 | -31.93918 | 115.97315 | 73 ft | 3 kts | 257° |
| 2026-04-27 06:44 | -31.93935 | 115.97279 | 68 ft | 7 kts | 241° |
| 2026-04-27 06:45 | -31.93962 | 115.97220 | 73 ft | 10 kts | 242° |
| 2026-04-27 06:45 | -31.93953 | 115.97129 | 70 ft | 13 kts | 283° |
| 2026-04-27 06:45 | -31.93929 | 115.97017 | 73 ft | 15 kts | 284° |
| 2026-04-27 06:45 | -31.93882 | 115.96906 | 73 ft | 17 kts | 341° |
| 2026-04-27 06:46 | -31.93764 | 115.96935 | 73 ft | 18 kts | 10° |
| 2026-04-27 06:46 | -31.93636 | 115.96972 | 73 ft | 19 kts | 14° |
| 2026-04-27 06:46 | -31.93502 | 115.97011 | 73 ft | 20 kts | 14° |
| 2026-04-27 06:46 | -31.93364 | 115.97051 | 73 ft | 21 kts | 14° |
| 2026-04-27 06:47 | -31.93221 | 115.97093 | 73 ft | 21 kts | 14° |
| 2026-04-27 06:47 | -31.93074 | 115.97135 | 73 ft | 22 kts | 14° |
| 2026-04-27 06:47 | -31.92962 | 115.97153 | 73 ft | 15 kts | 333° |
| 2026-04-27 06:47 | -31.92928 | 115.97074 | 66 ft | 0 kts | 283° |
| 2026-04-27 06:54 | -31.92925 | 115.97060 | 73 ft | 3 kts | 283° |
| 2026-04-27 06:54 | -31.92917 | 115.97018 | 73 ft | 8 kts | 284° |
| 2026-04-27 06:54 | -31.92900 | 115.96941 | 73 ft | 11 kts | 284° |
| 2026-04-27 06:55 | -31.92901 | 115.96847 | 73 ft | 13 kts | 230° |
| 2026-04-27 06:55 | -31.92975 | 115.96813 | 72 ft | 0 kts | 193° |
| 2026-04-27 06:57 | -31.93020 | 115.96800 | 68 ft | 27 kts | 193° |
| 2026-04-27 06:58 | -31.93435 | 115.96678 | 63 ft | 95 kts | 196° |
| 2026-04-27 06:58 | -31.95404 | 115.96121 | 495 ft | 160 kts | 192° |
| 2026-04-27 06:58 | -31.96508 | 115.95812 | 1011 ft | 168 kts | 193° |
| 2026-04-27 06:59 | -31.97689 | 115.95462 | 1443 ft | 184 kts | 193° |
| 2026-04-27 06:59 | -31.98985 | 115.95083 | 1880 ft | 199 kts | 193° |
| 2026-04-27 06:59 | -32.00360 | 115.94565 | 2346 ft | 217 kts | 205° |
| 2026-04-27 06:59 | -32.01617 | 115.93435 | 2727 ft | 239 kts | 230° |
| 2026-04-27 07:00 | -32.02375 | 115.91671 | 3457 ft | 245 kts | 256° |
| 2026-04-27 07:00 | -32.02430 | 115.89682 | 4380 ft | 244 kts | 276° |
| 2026-04-27 07:00 | -32.02152 | 115.87725 | 5346 ft | 240 kts | 281° |
| 2026-04-27 07:00 | -32.01859 | 115.85785 | 6188 ft | 241 kts | 282° |
| 2026-04-27 07:01 | -32.01581 | 115.83844 | 7067 ft | 239 kts | 283° |
| 2026-04-27 07:01 | -32.01314 | 115.81905 | 7833 ft | 241 kts | 283° |
| 2026-04-27 07:01 | -32.01051 | 115.79959 | 8551 ft | 244 kts | 283° |
| 2026-04-27 07:01 | -32.00781 | 115.77970 | 9267 ft | 247 kts | 283° |
| 2026-04-27 07:02 | -32.00514 | 115.75957 | 9940 ft | 251 kts | 283° |
| 2026-04-27 07:02 | -32.00238 | 115.73871 | 10347 ft | 266 kts | 282° |
| 2026-04-27 07:02 | -31.99942 | 115.71637 | 10592 ft | 285 kts | 282° |
| 2026-04-27 07:02 | -31.99427 | 115.69315 | 10805 ft | 300 kts | 295° |
| 2026-04-27 07:03 | -31.98246 | 115.67220 | 11006 ft | 318 kts | 313° |
| 2026-04-27 07:03 | -31.96395 | 115.65659 | 11204 ft | 340 kts | 332° |
| 2026-04-27 07:03 | -31.94054 | 115.64962 | 11398 ft | 365 kts | 351° |
| 2026-04-27 07:03 | -31.91452 | 115.65166 | 11655 ft | 383 kts | 3° |
| 2026-04-27 07:04 | -31.88796 | 115.65626 | 12081 ft | 389 kts | 4° |
| 2026-04-27 07:04 | -31.86099 | 115.66076 | 12541 ft | 393 kts | 3° |
| 2026-04-27 07:04 | -31.83378 | 115.66492 | 13022 ft | 395 kts | 2° |
| 2026-04-27 07:04 | -31.80638 | 115.66893 | 13540 ft | 398 kts | 2° |
| 2026-04-27 07:05 | -31.77877 | 115.67284 | 14028 ft | 401 kts | 2° |
| 2026-04-27 07:05 | -31.75098 | 115.67674 | 14481 ft | 404 kts | 2° |
| 2026-04-27 07:05 | -31.72294 | 115.68069 | 14992 ft | 407 kts | 2° |
| 2026-04-27 07:05 | -31.69472 | 115.68465 | 15532 ft | 410 kts | 2° |
| 2026-04-27 07:06 | -31.66624 | 115.68865 | 16063 ft | 414 kts | 2° |
| 2026-04-27 07:06 | -31.63756 | 115.69266 | 16552 ft | 417 kts | 2° |
| 2026-04-27 07:06 | -31.60863 | 115.69671 | 17024 ft | 420 kts | 2° |
| 2026-04-27 07:06 | -31.57949 | 115.70078 | 17484 ft | 423 kts | 2° |
| 2026-04-27 07:07 | -31.55008 | 115.70488 | 17935 ft | 426 kts | 2° |
| 2026-04-27 07:07 | -31.52054 | 115.70903 | 18374 ft | 430 kts | 2° |
| 2026-04-27 07:07 | -31.49076 | 115.71315 | 18797 ft | 432 kts | 2° |
| 2026-04-27 07:07 | -31.46082 | 115.71730 | 19217 ft | 435 kts | 2° |
| 2026-04-27 07:08 | -31.43070 | 115.72151 | 19664 ft | 437 kts | 2° |
| 2026-04-27 07:08 | -31.40044 | 115.72572 | 20097 ft | 439 kts | 2° |
| 2026-04-27 07:08 | -31.36998 | 115.72995 | 20497 ft | 441 kts | 2° |
| 2026-04-27 07:08 | -31.33944 | 115.73419 | 20897 ft | 444 kts | 2° |
| 2026-04-27 07:09 | -31.30868 | 115.73849 | 21358 ft | 446 kts | 2° |
| 2026-04-27 07:09 | -31.27771 | 115.74280 | 21812 ft | 449 kts | 2° |
| 2026-04-27 07:09 | -31.24657 | 115.74710 | 22220 ft | 451 kts | 2° |
| 2026-04-27 07:09 | -31.21528 | 115.75148 | 22629 ft | 454 kts | 3° |
| 2026-04-27 07:10 | -31.18389 | 115.75588 | 23001 ft | 456 kts | 3° |
| 2026-04-27 07:10 | -31.15235 | 115.76031 | 23339 ft | 458 kts | 3° |
| 2026-04-27 07:10 | -31.12067 | 115.76464 | 23681 ft | 459 kts | 2° |
| 2026-04-27 07:10 | -31.08893 | 115.76896 | 24120 ft | 458 kts | 2° |
| 2026-04-27 07:11 | -31.05727 | 115.77332 | 24529 ft | 457 kts | 2° |
| 2026-04-27 07:11 | -31.02616 | 115.77760 | 24962 ft | 456 kts | 2° |
| 2026-04-27 07:11 | -30.99427 | 115.78200 | 25395 ft | 454 kts | 2° |
| 2026-04-27 07:11 | -30.96294 | 115.78632 | 25829 ft | 453 kts | 2° |
| 2026-04-27 07:12 | -30.93171 | 115.79061 | 26255 ft | 451 kts | 2° |
| 2026-04-27 07:12 | -30.90054 | 115.79489 | 26662 ft | 450 kts | 2° |
| 2026-04-27 07:12 | -30.86982 | 115.79912 | 27073 ft | 449 kts | 2° |
| 2026-04-27 07:12 | -30.83881 | 115.80335 | 27509 ft | 447 kts | 2° |
| 2026-04-27 07:13 | -30.80796 | 115.80758 | 27917 ft | 446 kts | 2° |
| 2026-04-27 07:13 | -30.77714 | 115.81179 | 28322 ft | 444 kts | 2° |
| 2026-04-27 07:13 | -30.74646 | 115.81600 | 28721 ft | 442 kts | 2° |
| 2026-04-27 07:13 | -30.71587 | 115.82018 | 29078 ft | 441 kts | 2° |
| 2026-04-27 07:14 | -30.68538 | 115.82436 | 29425 ft | 441 kts | 2° |
| 2026-04-27 07:14 | -30.65495 | 115.82852 | 29762 ft | 440 kts | 2° |
| 2026-04-27 07:14 | -30.62461 | 115.83267 | 30118 ft | 438 kts | 2° |
| 2026-04-27 07:14 | -30.59436 | 115.83682 | 30421 ft | 437 kts | 2° |
| 2026-04-27 07:15 | -30.56418 | 115.84096 | 30701 ft | 437 kts | 2° |
| 2026-04-27 07:15 | -30.53395 | 115.84507 | 30971 ft | 437 kts | 1° |
| 2026-04-27 07:15 | -30.50377 | 115.84918 | 31218 ft | 437 kts | 1° |
| 2026-04-27 07:15 | -30.47353 | 115.85332 | 31464 ft | 437 kts | 1° |
| 2026-04-27 07:16 | -30.44335 | 115.85744 | 31718 ft | 437 kts | 1° |
| 2026-04-27 07:16 | -30.41350 | 115.86149 | 31958 ft | 437 kts | 1° |
| 2026-04-27 07:16 | -30.38349 | 115.86557 | 32183 ft | 436 kts | 1° |
| 2026-04-27 07:16 | -30.35335 | 115.86972 | 32388 ft | 436 kts | 1° |
| 2026-04-27 07:17 | -30.32318 | 115.87383 | 32605 ft | 436 kts | 1° |
| 2026-04-27 07:17 | -30.29298 | 115.87795 | 32807 ft | 436 kts | 1° |
| 2026-04-27 07:17 | -30.26280 | 115.88204 | 32983 ft | 437 kts | 1° |
| 2026-04-27 07:18 | -30.20235 | 115.89024 | 33014 ft | 437 kts | 1° |
| 2026-04-27 07:18 | -30.14205 | 115.89839 | 32990 ft | 436 kts | 1° |
| 2026-04-27 07:19 | -30.08208 | 115.90652 | 32994 ft | 436 kts | 1° |
| 2026-04-27 07:19 | -30.02172 | 115.91464 | 32994 ft | 436 kts | 1° |
| 2026-04-27 07:20 | -29.96136 | 115.92279 | 32993 ft | 437 kts | 1° |
| 2026-04-27 07:20 | -29.90096 | 115.93096 | 32992 ft | 437 kts | 1° |
| 2026-04-27 07:21 | -29.84059 | 115.93907 | 32987 ft | 437 kts | 1° |
| 2026-04-27 07:21 | -29.78020 | 115.94717 | 32977 ft | 437 kts | 1° |
| 2026-04-27 07:22 | -29.71983 | 115.95530 | 32981 ft | 437 kts | 1° |
| 2026-04-27 07:22 | -29.65950 | 115.96343 | 32982 ft | 436 kts | 0° |
| 2026-04-27 07:23 | -29.59960 | 115.97144 | 32972 ft | 436 kts | 0° |
| 2026-04-27 07:23 | -29.53934 | 115.97948 | 32982 ft | 436 kts | 0° |
| 2026-04-27 07:24 | -29.47914 | 115.98753 | 32974 ft | 436 kts | 0° |
| 2026-04-27 07:24 | -29.41886 | 115.99560 | 32967 ft | 436 kts | 0° |
| 2026-04-27 07:25 | -29.35860 | 116.00366 | 32973 ft | 436 kts | 0° |
| 2026-04-27 07:25 | -29.29838 | 116.01168 | 32972 ft | 436 kts | 0° |
| 2026-04-27 07:26 | -29.23803 | 116.01967 | 32967 ft | 436 kts | 0° |
| 2026-04-27 07:26 | -29.17812 | 116.02199 | 32966 ft | 428 kts | 351° |
| 2026-04-27 07:27 | -29.11911 | 116.01798 | 32974 ft | 427 kts | 350° |
| 2026-04-27 07:27 | -29.05983 | 116.01401 | 32969 ft | 427 kts | 350° |
| 2026-04-27 07:28 | -29.00057 | 116.01012 | 32966 ft | 426 kts | 350° |
| 2026-04-27 07:28 | -28.94135 | 116.00619 | 32969 ft | 426 kts | 350° |
| 2026-04-27 07:29 | -28.88210 | 116.00230 | 32973 ft | 426 kts | 350° |
| 2026-04-27 07:29 | -28.82280 | 115.99839 | 32971 ft | 426 kts | 350° |
| 2026-04-27 07:30 | -28.76363 | 115.99454 | 32967 ft | 426 kts | 350° |
| 2026-04-27 07:30 | -28.70449 | 115.99069 | 32969 ft | 426 kts | 350° |
| 2026-04-27 07:31 | -28.64581 | 115.98686 | 32970 ft | 425 kts | 349° |
| 2026-04-27 07:31 | -28.58680 | 115.98311 | 32967 ft | 424 kts | 349° |
| 2026-04-27 07:32 | -28.52796 | 115.97932 | 32967 ft | 423 kts | 349° |
| 2026-04-27 07:32 | -28.46908 | 115.97543 | 32969 ft | 423 kts | 349° |
| 2026-04-27 07:33 | -28.41023 | 115.97161 | 32975 ft | 424 kts | 349° |
| 2026-04-27 07:33 | -28.35123 | 115.96778 | 32979 ft | 424 kts | 349° |
| 2026-04-27 07:34 | -28.29231 | 115.96399 | 32974 ft | 424 kts | 349° |
| 2026-04-27 07:34 | -28.23377 | 115.96017 | 32964 ft | 424 kts | 349° |
| 2026-04-27 07:35 | -28.17479 | 115.95639 | 32963 ft | 424 kts | 349° |
| 2026-04-27 07:35 | -28.11580 | 115.95267 | 32960 ft | 424 kts | 349° |
| 2026-04-27 07:36 | -28.05688 | 115.94881 | 32960 ft | 424 kts | 349° |
| 2026-04-27 07:36 | -27.99791 | 115.94505 | 32961 ft | 424 kts | 349° |
| 2026-04-27 07:37 | -27.93895 | 115.94128 | 32961 ft | 424 kts | 349° |
| 2026-04-27 07:37 | -27.87998 | 115.93750 | 32961 ft | 424 kts | 349° |
| 2026-04-27 07:38 | -27.82103 | 115.93377 | 32962 ft | 424 kts | 349° |
| 2026-04-27 07:38 | -27.76213 | 115.92997 | 32961 ft | 424 kts | 349° |
| 2026-04-27 07:39 | -27.70318 | 115.92617 | 32959 ft | 424 kts | 349° |
| 2026-04-27 07:39 | -27.64461 | 115.92243 | 32960 ft | 424 kts | 349° |
| 2026-04-27 07:40 | -27.58566 | 115.91870 | 32960 ft | 424 kts | 349° |
| 2026-04-27 07:40 | -27.52671 | 115.91490 | 32960 ft | 424 kts | 349° |
| 2026-04-27 07:41 | -27.46771 | 115.91109 | 32960 ft | 424 kts | 349° |
| 2026-04-27 07:41 | -27.40878 | 115.90741 | 32961 ft | 424 kts | 349° |
| 2026-04-27 07:42 | -27.34989 | 115.90362 | 32961 ft | 424 kts | 349° |
| 2026-04-27 07:42 | -27.30095 | 115.90046 | 32962 ft | 423 kts | 349° |
| 2026-04-27 07:43 | -27.23250 | 115.89618 | 32961 ft | 424 kts | 349° |
| 2026-04-27 07:43 | -27.18317 | 115.89302 | 32963 ft | 424 kts | 349° |
| 2026-04-27 07:44 | -27.12452 | 115.88929 | 32961 ft | 424 kts | 349° |
| 2026-04-27 07:44 | -27.06559 | 115.88564 | 32961 ft | 424 kts | 349° |
| 2026-04-27 07:45 | -27.00668 | 115.88196 | 32959 ft | 424 kts | 348° |
| 2026-04-27 07:45 | -26.94782 | 115.87802 | 32961 ft | 423 kts | 349° |
| 2026-04-27 07:46 | -26.88905 | 115.87430 | 32959 ft | 423 kts | 349° |
| 2026-04-27 07:46 | -26.83013 | 115.87068 | 32960 ft | 424 kts | 349° |
| 2026-04-27 07:47 | -26.77117 | 115.86693 | 32962 ft | 424 kts | 348° |
| 2026-04-27 07:47 | -26.71210 | 115.86320 | 32959 ft | 425 kts | 349° |
| 2026-04-27 07:48 | -26.65342 | 115.85958 | 32959 ft | 425 kts | 349° |
| 2026-04-27 07:48 | -26.59441 | 115.85589 | 32960 ft | 425 kts | 349° |
| 2026-04-27 07:49 | -26.53537 | 115.85217 | 32962 ft | 425 kts | 349° |
| 2026-04-27 07:49 | -26.47630 | 115.84850 | 32963 ft | 425 kts | 349° |
| 2026-04-27 07:50 | -26.41716 | 115.84474 | 32959 ft | 425 kts | 348° |
| 2026-04-27 07:50 | -26.35809 | 115.84102 | 32952 ft | 426 kts | 349° |
| 2026-04-27 07:51 | -26.29892 | 115.83732 | 32950 ft | 426 kts | 349° |
| 2026-04-27 07:51 | -26.23959 | 115.83368 | 32950 ft | 426 kts | 349° |
| 2026-04-27 07:52 | -26.18072 | 115.83003 | 32951 ft | 426 kts | 348° |
| 2026-04-27 07:52 | -26.12150 | 115.82631 | 32949 ft | 426 kts | 348° |
| 2026-04-27 07:53 | -26.06225 | 115.82262 | 32950 ft | 426 kts | 349° |
| 2026-04-27 07:53 | -26.00303 | 115.81898 | 32950 ft | 426 kts | 348° |
| 2026-04-27 07:54 | -25.94380 | 115.81526 | 32949 ft | 426 kts | 349° |
| 2026-04-27 07:54 | -25.88455 | 115.81163 | 32949 ft | 426 kts | 349° |
| 2026-04-27 07:55 | -25.82535 | 115.80800 | 32949 ft | 426 kts | 349° |
| 2026-04-27 07:55 | -25.76609 | 115.80435 | 32952 ft | 426 kts | 348° |
| 2026-04-27 07:56 | -25.70721 | 115.80071 | 32952 ft | 427 kts | 349° |
| 2026-04-27 07:56 | -25.64786 | 115.79706 | 32950 ft | 427 kts | 349° |
| 2026-04-27 07:57 | -25.58843 | 115.79338 | 32950 ft | 427 kts | 349° |
| 2026-04-27 07:57 | -25.52910 | 115.78973 | 32951 ft | 427 kts | 349° |
| 2026-04-27 07:58 | -25.46978 | 115.78610 | 32949 ft | 426 kts | 349° |
| 2026-04-27 07:58 | -25.41052 | 115.78245 | 32942 ft | 426 kts | 349° |
| 2026-04-27 07:59 | -25.35117 | 115.77878 | 32941 ft | 427 kts | 349° |
| 2026-04-27 07:59 | -25.26252 | 115.77337 | 32940 ft | 427 kts | 349° |
| 2026-04-27 08:00 | -25.20309 | 115.76973 | 32940 ft | 428 kts | 349° |
| 2026-04-27 08:00 | -25.14371 | 115.76601 | 32940 ft | 427 kts | 349° |
| 2026-04-27 08:01 | -25.08429 | 115.76228 | 32942 ft | 428 kts | 349° |
| 2026-04-27 08:01 | -25.02479 | 115.75871 | 32941 ft | 428 kts | 349° |
| 2026-04-27 08:02 | -24.96521 | 115.75506 | 32943 ft | 429 kts | 349° |
| 2026-04-27 08:02 | -24.90569 | 115.75145 | 32939 ft | 428 kts | 349° |
| 2026-04-27 08:03 | -24.84624 | 115.74789 | 32941 ft | 428 kts | 349° |
| 2026-04-27 08:03 | -24.78672 | 115.74425 | 32941 ft | 428 kts | 349° |
| 2026-04-27 08:04 | -24.72755 | 115.74068 | 32942 ft | 428 kts | 349° |
| 2026-04-27 08:04 | -24.66794 | 115.73705 | 32941 ft | 429 kts | 349° |
| 2026-04-27 08:05 | -24.60829 | 115.73343 | 32940 ft | 429 kts | 349° |
| 2026-04-27 08:05 | -24.54853 | 115.72984 | 32939 ft | 430 kts | 349° |
| 2026-04-27 08:06 | -24.48876 | 115.72625 | 32939 ft | 430 kts | 349° |
| 2026-04-27 08:06 | -24.42897 | 115.72251 | 32940 ft | 430 kts | 349° |
| 2026-04-27 08:07 | -24.36921 | 115.71888 | 32937 ft | 431 kts | 349° |
| 2026-04-27 08:07 | -24.30926 | 115.71531 | 32931 ft | 431 kts | 350° |
| 2026-04-27 08:08 | -24.24968 | 115.71171 | 32931 ft | 432 kts | 350° |
| 2026-04-27 08:08 | -24.18934 | 115.70814 | 32931 ft | 432 kts | 349° |
| 2026-04-27 08:09 | -24.12936 | 115.70451 | 32931 ft | 432 kts | 349° |
| 2026-04-27 08:09 | -24.06972 | 115.70085 | 32931 ft | 432 kts | 350° |
| 2026-04-27 08:10 | -24.00968 | 115.69721 | 32930 ft | 432 kts | 350° |
| 2026-04-27 08:10 | -23.94957 | 115.69362 | 32929 ft | 432 kts | 349° |
| 2026-04-27 08:11 | -23.88951 | 115.68997 | 32930 ft | 432 kts | 350° |
| 2026-04-27 08:11 | -23.82933 | 115.68644 | 32930 ft | 432 kts | 349° |
| 2026-04-27 08:12 | -23.76922 | 115.68280 | 32929 ft | 432 kts | 350° |
| 2026-04-27 08:12 | -23.70944 | 115.67926 | 32930 ft | 432 kts | 350° |
| 2026-04-27 08:13 | -23.64930 | 115.67572 | 32939 ft | 433 kts | 350° |
| 2026-04-27 08:13 | -23.58911 | 115.67213 | 32939 ft | 433 kts | 350° |
| 2026-04-27 08:14 | -23.52898 | 115.66847 | 32939 ft | 433 kts | 350° |
| 2026-04-27 08:14 | -23.46876 | 115.66487 | 32931 ft | 433 kts | 350° |
| 2026-04-27 08:15 | -23.40858 | 115.66133 | 32929 ft | 433 kts | 350° |
| 2026-04-27 08:15 | -23.34836 | 115.65777 | 32930 ft | 433 kts | 350° |
| 2026-04-27 08:16 | -23.28811 | 115.65423 | 32930 ft | 434 kts | 350° |
| 2026-04-27 08:16 | -23.22774 | 115.65062 | 32931 ft | 434 kts | 350° |
| 2026-04-27 08:17 | -23.16730 | 115.64705 | 32932 ft | 435 kts | 350° |
| 2026-04-27 08:17 | -23.10717 | 115.64353 | 32929 ft | 435 kts | 350° |
| 2026-04-27 08:18 | -23.04674 | 115.63999 | 32930 ft | 435 kts | 350° |
| 2026-04-27 08:18 | -22.98627 | 115.63645 | 32930 ft | 435 kts | 350° |
| 2026-04-27 08:19 | -22.92580 | 115.63286 | 32930 ft | 436 kts | 350° |
| 2026-04-27 08:19 | -22.86510 | 115.62923 | 32931 ft | 437 kts | 350° |
| 2026-04-27 08:20 | -22.80442 | 115.62563 | 32929 ft | 437 kts | 350° |
| 2026-04-27 08:20 | -22.74404 | 115.62206 | 32929 ft | 437 kts | 350° |
| 2026-04-27 08:21 | -22.68324 | 115.61846 | 32930 ft | 438 kts | 350° |
| 2026-04-27 08:21 | -22.62189 | 115.61479 | 32930 ft | 438 kts | 350° |
| 2026-04-27 08:22 | -22.56127 | 115.61130 | 32929 ft | 439 kts | 351° |
| 2026-04-27 08:22 | -22.50014 | 115.60770 | 32931 ft | 440 kts | 350° |
| 2026-04-27 08:23 | -22.43901 | 115.60418 | 32928 ft | 440 kts | 351° |
| 2026-04-27 08:23 | -22.37785 | 115.60062 | 32930 ft | 441 kts | 351° |
| 2026-04-27 08:24 | -22.31658 | 115.59705 | 32930 ft | 440 kts | 351° |
| 2026-04-27 08:24 | -22.25535 | 115.59346 | 32930 ft | 440 kts | 351° |
| 2026-04-27 08:25 | -22.19413 | 115.58986 | 32930 ft | 441 kts | 351° |
| 2026-04-27 08:25 | -22.13285 | 115.58631 | 32930 ft | 441 kts | 351° |
| 2026-04-27 08:26 | -22.07150 | 115.58272 | 32931 ft | 442 kts | 351° |
| 2026-04-27 08:26 | -22.01002 | 115.57913 | 32930 ft | 442 kts | 351° |
| 2026-04-27 08:27 | -21.94855 | 115.57556 | 32930 ft | 443 kts | 351° |
| 2026-04-27 08:27 | -21.88705 | 115.57202 | 32930 ft | 442 kts | 351° |
| 2026-04-27 08:28 | -21.83604 | 115.56905 | 32930 ft | 442 kts | 351° |
| 2026-04-27 08:28 | -21.77458 | 115.56545 | 32928 ft | 442 kts | 351° |
| 2026-04-27 08:29 | -21.71316 | 115.56192 | 32921 ft | 442 kts | 351° |
| 2026-04-27 08:29 | -21.65176 | 115.55835 | 32919 ft | 442 kts | 351° |
| 2026-04-27 08:30 | -21.59073 | 115.55483 | 32919 ft | 442 kts | 351° |
| 2026-04-27 08:30 | -21.52935 | 115.55127 | 32919 ft | 442 kts | 351° |
| 2026-04-27 08:31 | -21.46807 | 115.54774 | 32921 ft | 442 kts | 351° |
| 2026-04-27 08:31 | -21.40658 | 115.54415 | 32921 ft | 441 kts | 351° |
| 2026-04-27 08:32 | -21.34515 | 115.54060 | 32923 ft | 442 kts | 351° |
| 2026-04-27 08:32 | -21.28380 | 115.53708 | 32920 ft | 441 kts | 351° |
| 2026-04-27 08:33 | -21.22244 | 115.53357 | 32916 ft | 441 kts | 351° |
| 2026-04-27 08:33 | -21.16107 | 115.53001 | 32916 ft | 442 kts | 351° |
| 2026-04-27 08:34 | -21.09975 | 115.52638 | 32921 ft | 441 kts | 351° |
| 2026-04-27 08:34 | -21.03839 | 115.52291 | 32919 ft | 442 kts | 351° |
| 2026-04-27 08:35 | -20.97730 | 115.51939 | 32916 ft | 442 kts | 351° |
| 2026-04-27 08:35 | -20.91580 | 115.51590 | 32918 ft | 443 kts | 352° |
| 2026-04-27 08:36 | -20.85433 | 115.51236 | 32920 ft | 443 kts | 352° |
| 2026-04-27 08:36 | -20.79269 | 115.50881 | 32921 ft | 443 kts | 352° |
| 2026-04-27 08:37 | -20.73123 | 115.50527 | 32918 ft | 442 kts | 352° |
| 2026-04-27 08:37 | -20.66962 | 115.50180 | 32921 ft | 443 kts | 352° |
| 2026-04-27 08:38 | -20.60808 | 115.49824 | 32922 ft | 443 kts | 352° |
| 2026-04-27 08:38 | -20.54687 | 115.49477 | 32912 ft | 443 kts | 352° |
| 2026-04-27 08:39 | -20.48519 | 115.49124 | 32913 ft | 444 kts | 352° |
| 2026-04-27 08:39 | -20.42354 | 115.48776 | 32909 ft | 444 kts | 352° |
| 2026-04-27 08:40 | -20.36183 | 115.48422 | 32903 ft | 444 kts | 352° |
| 2026-04-27 08:40 | -20.30004 | 115.48069 | 32905 ft | 444 kts | 352° |
| 2026-04-27 08:41 | -20.23829 | 115.47719 | 32904 ft | 445 kts | 352° |
| 2026-04-27 08:41 | -20.17641 | 115.47368 | 32912 ft | 445 kts | 352° |
| 2026-04-27 08:42 | -20.11458 | 115.47017 | 32907 ft | 445 kts | 352° |
| 2026-04-27 08:42 | -20.05275 | 115.46667 | 32906 ft | 445 kts | 352° |
| 2026-04-27 08:43 | -19.99099 | 115.46316 | 32919 ft | 445 kts | 352° |
| 2026-04-27 08:43 | -19.92946 | 115.45968 | 32922 ft | 446 kts | 352° |
| 2026-04-27 08:44 | -19.86743 | 115.45616 | 32917 ft | 445 kts | 352° |
| 2026-04-27 08:44 | -19.80546 | 115.45266 | 32909 ft | 446 kts | 352° |
| 2026-04-27 08:45 | -19.74347 | 115.44914 | 32906 ft | 446 kts | 352° |
| 2026-04-27 08:45 | -19.68147 | 115.44565 | 32910 ft | 446 kts | 352° |
| 2026-04-27 08:46 | -19.61990 | 115.44217 | 32915 ft | 446 kts | 352° |
| 2026-04-27 08:46 | -19.55784 | 115.43862 | 32910 ft | 446 kts | 352° |
| 2026-04-27 08:47 | -19.49583 | 115.43515 | 32914 ft | 447 kts | 352° |
| 2026-04-27 08:47 | -19.43378 | 115.43165 | 32905 ft | 446 kts | 353° |
| 2026-04-27 08:48 | -19.37171 | 115.42815 | 32914 ft | 446 kts | 353° |
| 2026-04-27 08:48 | -19.30971 | 115.42468 | 32912 ft | 446 kts | 353° |
| 2026-04-27 08:49 | -19.24775 | 115.42121 | 32914 ft | 446 kts | 353° |
| 2026-04-27 08:49 | -19.18573 | 115.41769 | 32913 ft | 446 kts | 353° |
| 2026-04-27 08:50 | -19.12365 | 115.41423 | 32913 ft | 446 kts | 353° |
| 2026-04-27 08:50 | -19.06163 | 115.41074 | 32905 ft | 447 kts | 353° |
| 2026-04-27 08:51 | -18.99941 | 115.40725 | 32910 ft | 447 kts | 353° |
| 2026-04-27 08:51 | -18.93730 | 115.40379 | 32912 ft | 447 kts | 353° |
| 2026-04-27 08:52 | -18.87516 | 115.40032 | 32912 ft | 447 kts | 353° |
| 2026-04-27 08:52 | -18.81338 | 115.39686 | 32909 ft | 447 kts | 353° |
| 2026-04-27 08:53 | -18.75111 | 115.39337 | 32912 ft | 449 kts | 353° |
| 2026-04-27 08:53 | -18.68872 | 115.38987 | 32913 ft | 449 kts | 353° |
| 2026-04-27 08:54 | -18.62629 | 115.38640 | 32909 ft | 449 kts | 353° |
| 2026-04-27 08:54 | -18.56381 | 115.38294 | 32907 ft | 449 kts | 353° |
| 2026-04-27 08:55 | -18.50145 | 115.37947 | 32912 ft | 449 kts | 353° |
| 2026-04-27 08:55 | -18.43901 | 115.37600 | 32911 ft | 449 kts | 353° |
| 2026-04-27 08:56 | -18.37692 | 115.37255 | 32906 ft | 449 kts | 353° |
| 2026-04-27 08:56 | -18.31442 | 115.36908 | 32912 ft | 450 kts | 353° |
| 2026-04-27 08:57 | -18.22049 | 115.36387 | 32915 ft | 450 kts | 354° |
| 2026-04-27 08:58 | -18.15783 | 115.36038 | 32914 ft | 450 kts | 354° |
| 2026-04-27 08:58 | -18.09521 | 115.35687 | 32912 ft | 450 kts | 353° |
| 2026-04-27 08:59 | -18.03264 | 115.35342 | 32904 ft | 450 kts | 354° |
| 2026-04-27 08:59 | -17.96990 | 115.34998 | 32909 ft | 452 kts | 354° |
| 2026-04-27 09:00 | -17.90739 | 115.34652 | 32912 ft | 453 kts | 354° |
| 2026-04-27 09:00 | -17.84443 | 115.34302 | 32909 ft | 453 kts | 354° |
| 2026-04-27 09:01 | -17.78151 | 115.33951 | 32899 ft | 453 kts | 354° |
| 2026-04-27 09:01 | -17.71856 | 115.33608 | 32905 ft | 453 kts | 354° |
| 2026-04-27 09:02 | -17.65561 | 115.33257 | 32902 ft | 453 kts | 354° |
| 2026-04-27 09:02 | -17.59261 | 115.32914 | 32900 ft | 453 kts | 354° |
| 2026-04-27 09:03 | -17.52957 | 115.32567 | 32895 ft | 453 kts | 354° |
| 2026-04-27 09:03 | -17.46693 | 115.32223 | 32901 ft | 453 kts | 354° |
| 2026-04-27 09:04 | -17.40387 | 115.31875 | 32908 ft | 453 kts | 354° |
| 2026-04-27 09:04 | -17.34077 | 115.31530 | 32900 ft | 454 kts | 354° |
| 2026-04-27 09:05 | -17.27773 | 115.31181 | 32898 ft | 454 kts | 354° |
| 2026-04-27 09:05 | -17.21457 | 115.30834 | 32896 ft | 454 kts | 354° |
| 2026-04-27 09:06 | -17.15144 | 115.30491 | 32904 ft | 454 kts | 354° |
| 2026-04-27 09:06 | -17.08834 | 115.30142 | 32907 ft | 454 kts | 354° |
| 2026-04-27 09:07 | -17.02515 | 115.29800 | 32903 ft | 455 kts | 354° |
| 2026-04-27 09:07 | -16.96228 | 115.29453 | 32905 ft | 455 kts | 354° |
| 2026-04-27 09:08 | -16.89899 | 115.29109 | 32887 ft | 455 kts | 354° |
| 2026-04-27 09:08 | -16.83558 | 115.28762 | 32887 ft | 456 kts | 354° |
| 2026-04-27 09:09 | -16.77220 | 115.28416 | 32886 ft | 456 kts | 354° |
| 2026-04-27 09:09 | -16.70877 | 115.28070 | 32887 ft | 457 kts | 354° |
| 2026-04-27 09:10 | -16.64522 | 115.27723 | 32888 ft | 457 kts | 354° |
| 2026-04-27 09:10 | -16.58170 | 115.27372 | 32888 ft | 457 kts | 355° |
| 2026-04-27 09:11 | -16.51802 | 115.27021 | 32886 ft | 457 kts | 355° |
| 2026-04-27 09:11 | -16.45445 | 115.26670 | 32897 ft | 458 kts | 355° |
| 2026-04-27 09:12 | -16.39121 | 115.26318 | 32903 ft | 458 kts | 355° |
| 2026-04-27 09:12 | -16.32749 | 115.25971 | 32887 ft | 458 kts | 355° |
| 2026-04-27 09:13 | -16.26372 | 115.25630 | 32887 ft | 459 kts | 355° |
| 2026-04-27 09:13 | -16.20018 | 115.25284 | 32887 ft | 456 kts | 354° |
| 2026-04-27 09:14 | -16.13672 | 115.24939 | 32888 ft | 456 kts | 354° |
| 2026-04-27 09:14 | -16.07321 | 115.24599 | 32887 ft | 456 kts | 354° |
| 2026-04-27 09:15 | -16.00979 | 115.24252 | 32884 ft | 456 kts | 354° |
| 2026-04-27 09:15 | -15.94671 | 115.23916 | 32880 ft | 457 kts | 354° |
| 2026-04-27 09:16 | -15.88306 | 115.23567 | 32880 ft | 458 kts | 354° |
| 2026-04-27 09:16 | -15.81943 | 115.23222 | 32880 ft | 458 kts | 355° |
| 2026-04-27 09:17 | -15.76660 | 115.22941 | 32879 ft | 458 kts | 355° |
| 2026-04-27 09:17 | -15.70298 | 115.22594 | 32880 ft | 458 kts | 355° |
| 2026-04-27 09:18 | -15.63936 | 115.22247 | 32882 ft | 457 kts | 355° |
| 2026-04-27 09:18 | -15.57576 | 115.21903 | 32881 ft | 457 kts | 355° |
| 2026-04-27 09:19 | -15.51224 | 115.21561 | 32881 ft | 457 kts | 355° |
| 2026-04-27 09:19 | -15.44873 | 115.21215 | 32881 ft | 457 kts | 355° |
| 2026-04-27 09:20 | -15.38517 | 115.20877 | 32881 ft | 457 kts | 355° |
| 2026-04-27 09:20 | -15.32168 | 115.20533 | 32881 ft | 457 kts | 355° |
| 2026-04-27 09:21 | -15.25860 | 115.20199 | 32881 ft | 457 kts | 355° |
| 2026-04-27 09:21 | -15.19512 | 115.19866 | 32875 ft | 457 kts | 355° |
| 2026-04-27 09:22 | -15.13163 | 115.19529 | 32871 ft | 457 kts | 355° |
| 2026-04-27 09:22 | -15.06817 | 115.19190 | 32871 ft | 457 kts | 355° |
| 2026-04-27 09:23 | -15.00464 | 115.18846 | 32870 ft | 457 kts | 355° |
| 2026-04-27 09:23 | -14.94116 | 115.18501 | 32870 ft | 456 kts | 355° |
| 2026-04-27 09:24 | -14.87770 | 115.18153 | 32870 ft | 457 kts | 355° |
| 2026-04-27 09:24 | -14.81417 | 115.17811 | 32871 ft | 457 kts | 355° |
| 2026-04-27 09:25 | -14.75065 | 115.17475 | 32870 ft | 457 kts | 355° |
| 2026-04-27 09:25 | -14.68753 | 115.17139 | 32870 ft | 457 kts | 355° |
| 2026-04-27 09:26 | -14.62399 | 115.16798 | 32870 ft | 457 kts | 355° |
| 2026-04-27 09:26 | -14.56050 | 115.16461 | 32867 ft | 457 kts | 355° |
| 2026-04-27 09:27 | -14.49700 | 115.16119 | 32861 ft | 457 kts | 355° |
| 2026-04-27 09:27 | -14.43355 | 115.15776 | 32862 ft | 457 kts | 355° |
| 2026-04-27 09:28 | -14.36999 | 115.15443 | 32854 ft | 457 kts | 355° |
| 2026-04-27 09:28 | -14.30640 | 115.15101 | 32853 ft | 457 kts | 355° |
| 2026-04-27 09:29 | -14.24293 | 115.14765 | 32847 ft | 457 kts | 356° |
| 2026-04-27 09:29 | -14.17938 | 115.14433 | 32851 ft | 457 kts | 355° |
| 2026-04-27 09:30 | -14.11581 | 115.14210 | 32849 ft | 457 kts | 358° |
| 2026-04-27 09:30 | -14.05257 | 115.14214 | 32850 ft | 457 kts | 359° |
| 2026-04-27 09:31 | -13.98890 | 115.14242 | 32855 ft | 458 kts | 359° |
| 2026-04-27 09:31 | -13.92521 | 115.14271 | 32852 ft | 458 kts | 359° |
| 2026-04-27 09:32 | -13.86154 | 115.14297 | 32852 ft | 458 kts | 359° |
| 2026-04-27 09:32 | -13.79780 | 115.14321 | 32849 ft | 458 kts | 359° |
| 2026-04-27 09:33 | -13.73408 | 115.14356 | 32841 ft | 458 kts | 359° |
| 2026-04-27 09:33 | -13.67041 | 115.14377 | 32839 ft | 458 kts | 359° |
| 2026-04-27 09:34 | -13.60669 | 115.14408 | 32843 ft | 458 kts | 359° |
| 2026-04-27 09:34 | -13.54285 | 115.14437 | 32839 ft | 459 kts | 359° |
| 2026-04-27 09:35 | -13.47898 | 115.14458 | 32840 ft | 459 kts | 359° |
| 2026-04-27 09:35 | -13.41517 | 115.14482 | 32839 ft | 459 kts | 359° |
| 2026-04-27 09:36 | -13.35132 | 115.14507 | 32837 ft | 459 kts | 359° |
| 2026-04-27 09:36 | -13.28746 | 115.14531 | 32843 ft | 459 kts | 359° |
| 2026-04-27 09:37 | -13.22356 | 115.14553 | 32838 ft | 459 kts | 359° |
| 2026-04-27 09:37 | -13.16000 | 115.14577 | 32842 ft | 459 kts | 359° |
| 2026-04-27 09:38 | -13.09674 | 115.14600 | 32836 ft | 459 kts | 359° |
| 2026-04-27 09:38 | -13.03207 | 115.14624 | 32837 ft | 459 kts | 359° |
| 2026-04-27 09:39 | -12.96807 | 115.14648 | 32829 ft | 459 kts | 359° |
| 2026-04-27 09:39 | -12.90411 | 115.14669 | 32830 ft | 459 kts | 359° |
| 2026-04-27 09:40 | -12.84008 | 115.14694 | 32830 ft | 459 kts | 359° |
| 2026-04-27 09:40 | -12.77618 | 115.14716 | 32830 ft | 459 kts | 359° |
| 2026-04-27 09:41 | -12.71222 | 115.14743 | 32830 ft | 459 kts | 359° |
| 2026-04-27 09:41 | -12.64872 | 115.14766 | 32830 ft | 459 kts | 359° |
| 2026-04-27 09:42 | -12.58477 | 115.14786 | 32830 ft | 459 kts | 359° |
| 2026-04-27 09:42 | -12.52081 | 115.14811 | 32831 ft | 460 kts | 359° |
| 2026-04-27 09:43 | -12.45679 | 115.14834 | 32838 ft | 459 kts | 359° |
| 2026-04-27 09:43 | -12.39276 | 115.14858 | 32839 ft | 460 kts | 359° |
| 2026-04-27 09:44 | -12.32877 | 115.14882 | 32833 ft | 459 kts | 359° |
| 2026-04-27 09:44 | -12.26476 | 115.14905 | 32830 ft | 460 kts | 359° |
| 2026-04-27 09:45 | -12.20121 | 115.14925 | 32830 ft | 460 kts | 359° |
| 2026-04-27 09:45 | -12.13718 | 115.14951 | 32830 ft | 460 kts | 359° |
| 2026-04-27 09:46 | -12.07307 | 115.14974 | 32831 ft | 460 kts | 359° |
| 2026-04-27 09:46 | -12.00894 | 115.14997 | 32831 ft | 460 kts | 359° |
| 2026-04-27 09:47 | -11.94487 | 115.15023 | 32831 ft | 460 kts | 360° |
| 2026-04-27 09:47 | -11.88071 | 115.15052 | 32830 ft | 460 kts | 360° |
| 2026-04-27 09:48 | -11.81664 | 115.15077 | 32831 ft | 460 kts | 360° |
| 2026-04-27 09:48 | -11.75297 | 115.15104 | 32830 ft | 460 kts | 360° |
| 2026-04-27 09:49 | -11.68887 | 115.15130 | 32830 ft | 460 kts | 360° |
| 2026-04-27 09:49 | -11.62480 | 115.15157 | 32828 ft | 460 kts | 360° |
| 2026-04-27 09:50 | -11.56073 | 115.15183 | 32830 ft | 460 kts | 360° |
| 2026-04-27 09:50 | -11.49666 | 115.15210 | 32830 ft | 460 kts | 360° |
| 2026-04-27 09:51 | -11.43268 | 115.15236 | 32830 ft | 460 kts | 360° |
| 2026-04-27 09:51 | -11.36863 | 115.15263 | 32830 ft | 460 kts | 360° |